Time;durP1;ratioP1;P1;durP2;ratioP2;P2;SDS_P1;SDS_P2;PMS_P1;PMS_P2;Temp;Humidity;BMP_temperature;BMP_pressure;BME280_temperature;BME280_humidity;BME280_pressure;Samples;Min_cycle;Max_cycle;Signal;HPM_P1;HPM_P2
2021/12/20 00:02:26;;;;;;;12.67;2.60;;;;;;;1.01;100.00;96940.03;10412030;28;20279;-77
2021/12/20 00:07:26;;;;;;;6.37;2.67;;;;;;;0.72;100.00;96946.94;10412249;28;20195;-77
2021/12/20 00:12:26;;;;;;;5.07;1.83;;;;;;;0.47;100.00;96950.06;10404228;28;20195;-77
2021/12/20 00:17:27;;;;;;;6.30;2.00;;;;;;;0.24;100.00;96949.63;10404558;28;20211;-76
2021/12/20 00:22:27;;;;;;;10.57;2.47;;;;;;;0.02;100.00;96952.59;10411028;28;20648;-77
2021/12/20 00:27:27;;;;;;;7.63;2.53;;;;;;;-0.19;100.00;96962.31;10412256;28;20232;-76
2021/12/20 00:32:28;;;;;;;16.20;2.87;;;;;;;-0.14;100.00;96968.03;10412332;28;20335;-76
2021/12/20 00:42:55;;;;;;;12.63;3.20;;;;;;;-0.01;100.00;96970.78;10412003;28;20334;-76
2021/12/20 00:47:56;;;;;;;9.50;2.47;;;;;;;-0.08;100.00;96979.75;10410943;28;20258;-76
2021/12/20 00:52:57;;;;;;;9.57;2.50;;;;;;;-0.18;100.00;96971.72;10411460;28;20262;-76
2021/12/20 00:57:59;;;;;;;10.10;2.17;;;;;;;-0.38;100.00;96980.53;10409541;28;20311;-77
2021/12/20 01:03:00;;;;;;;10.40;2.20;;;;;;;-0.55;100.00;96994.28;10411698;28;20238;-77
2021/12/20 01:08:01;;;;;;;13.13;2.27;;;;;;;-0.59;100.00;96998.75;10411044;28;20191;-77
2021/12/20 01:13:04;;;;;;;9.97;2.20;;;;;;;-0.75;100.00;97001.28;10411200;28;20197;-77
2021/12/20 01:18:05;;;;;;;8.67;2.03;;;;;;;-0.79;100.00;97006.69;10411067;28;20212;-76
2021/12/20 01:23:05;;;;;;;10.00;2.10;;;;;;;-0.94;100.00;96990.28;10409689;28;20514;-77
2021/12/20 01:28:06;;;;;;;6.97;2.20;;;;;;;-0.92;100.00;96991.88;10410818;28;20601;-76
2021/12/20 01:33:08;;;;;;;5.53;2.07;;;;;;;-0.81;100.00;96993.03;10409712;28;20195;-77
2021/12/20 01:38:09;;;;;;;8.53;2.33;;;;;;;-0.68;100.00;97001.78;10410364;28;20251;-77
2021/12/20 01:43:11;;;;;;;9.43;1.97;;;;;;;-0.60;100.00;96991.97;10410837;28;20227;-77
2021/12/20 01:48:14;;;;;;;5.97;1.80;;;;;;;-0.42;100.00;97007.31;10410031;28;20200;-77
2021/12/20 01:53:18;;;;;;;7.37;1.77;;;;;;;-0.53;100.00;97013.03;10410493;28;20304;-76
2021/12/20 01:58:19;;;;;;;9.90;1.70;;;;;;;-0.59;100.00;97024.47;10409828;28;20218;-77
2021/12/20 02:03:19;;;;;;;7.93;1.77;;;;;;;-0.51;100.00;97018.94;10416203;28;20193;-77
2021/12/20 02:08:25;;;;;;;9.77;1.90;;;;;;;-0.59;100.00;97008.22;10417994;28;20718;-77
2021/12/20 02:13:30;;;;;;;2.97;1.70;;;;;;;-0.55;100.00;97023.41;10417531;28;20552;-77
2021/12/20 02:18:31;;;;;;;8.53;2.30;;;;;;;-0.67;100.00;97024.06;10417133;28;20225;-77
2021/12/20 02:23:32;;;;;;;10.43;2.67;;;;;;;-0.75;100.00;97009.00;10417206;28;20235;-76
2021/12/20 02:28:36;;;;;;;7.17;2.00;;;;;;;-0.78;100.00;97022.03;10416334;28;20645;-77
2021/12/20 02:38:57;;;;;;;9.80;2.63;;;;;;;-0.94;100.00;97021.97;10415591;28;20235;-77
2021/12/20 02:44:05;;;;;;;8.90;2.97;;;;;;;-0.97;100.00;97024.69;10416365;28;20283;-77
2021/12/20 02:49:15;;;;;;;5.30;2.30;;;;;;;-0.97;100.00;97021.28;10414786;28;20192;-77
2021/12/20 02:54:18;;;;;;;8.13;2.23;;;;;;;-0.91;100.00;97026.94;10415563;28;20201;-77
2021/12/20 02:59:19;;;;;;;7.33;2.03;;;;;;;-0.86;100.00;97031.84;10415291;28;20221;-76
2021/12/20 03:04:19;;;;;;;7.13;2.47;;;;;;;-0.74;100.00;97030.41;10415245;28;20196;-77
2021/12/20 03:09:22;;;;;;;5.87;2.50;;;;;;;-0.67;100.00;97028.34;10415001;28;20192;-76
2021/12/20 03:14:28;;;;;;;6.23;2.47;;;;;;;-0.62;100.00;97040.06;10412933;28;20193;-76
2021/12/20 03:19:28;;;;;;;9.27;2.87;;;;;;;-0.80;100.00;97043.59;10414562;28;20305;-77
2021/12/20 03:24:29;;;;;;;9.37;3.53;;;;;;;-0.81;100.00;97047.91;10429467;28;20700;-76
2021/12/20 03:29:29;;;;;;;5.73;2.93;;;;;;;-0.96;100.00;97046.13;10413368;28;20653;-76
2021/12/20 03:34:29;;;;;;;10.50;3.03;;;;;;;-1.13;100.00;97046.97;10412507;28;20676;-77
2021/12/20 03:39:30;;;;;;;6.23;3.00;;;;;;;-1.23;100.00;97043.97;10414523;28;20274;-76
2021/12/20 03:44:37;;;;;;;7.33;2.93;;;;;;;-1.36;100.00;97060.91;10413020;28;20192;-76
2021/12/20 03:49:37;;;;;;;5.77;3.20;;;;;;;-1.40;100.00;97044.81;10414036;28;20220;-77
2021/12/20 03:54:38;;;;;;;9.03;3.53;;;;;;;-1.53;100.00;97066.84;10413274;28;20192;-76
2021/12/20 03:59:38;;;;;;;9.17;3.43;;;;;;;-1.57;100.00;97070.50;10413099;28;20221;-76
2021/12/20 04:04:38;;;;;;;8.37;3.90;;;;;;;-1.42;100.00;97087.75;10408083;28;20196;-76
2021/12/20 04:09:39;;;;;;;11.37;4.60;;;;;;;-1.30;100.00;97078.63;10406299;28;20192;-76
2021/12/20 04:14:39;;;;;;;12.57;3.97;;;;;;;-1.25;100.00;97081.78;10403803;28;20312;-76
2021/12/20 04:19:40;;;;;;;10.73;4.20;;;;;;;-1.25;100.00;97089.50;10405511;28;20216;-76
2021/12/20 04:24:40;;;;;;;11.13;3.80;;;;;;;-1.35;100.00;97083.97;10404726;28;20232;-76
2021/12/20 04:29:41;;;;;;;7.37;4.30;;;;;;;-1.37;100.00;97088.34;10403613;28;20189;-76
2021/12/20 04:34:41;;;;;;;14.77;4.17;;;;;;;-1.45;100.00;97085.31;10404763;28;20275;-77
2021/12/20 04:39:41;;;;;;;6.70;3.70;;;;;;;-1.46;100.00;97088.78;10405374;28;20270;-76
2021/12/20 04:44:42;;;;;;;9.50;3.50;;;;;;;-1.54;100.00;97098.59;10404656;28;20271;-76
2021/12/20 04:49:43;;;;;;;9.97;3.57;;;;;;;-1.53;100.00;97097.69;10404804;28;20208;-76
2021/12/20 04:54:43;;;;;;;13.37;4.00;;;;;;;-1.42;100.00;97102.31;10404342;28;20197;-77
2021/12/20 04:59:43;;;;;;;13.10;3.90;;;;;;;-1.51;100.00;97094.16;10404028;28;20216;-76
2021/12/20 05:04:44;;;;;;;9.57;3.63;;;;;;;-1.38;100.00;97091.00;10411425;28;20200;-76
2021/12/20 05:09:44;;;;;;;6.63;3.40;;;;;;;-1.41;100.00;97088.56;10411446;28;20192;-76
2021/12/20 05:14:45;;;;;;;7.40;3.93;;;;;;;-1.34;100.00;97095.09;10411521;28;20281;-76
2021/12/20 05:19:45;;;;;;;11.77;4.03;;;;;;;-1.38;100.00;97106.41;10411263;28;20299;-77
2021/12/20 05:24:45;;;;;;;10.47;3.30;;;;;;;-1.27;100.00;97105.00;10410949;28;20236;-76
2021/12/20 05:29:47;;;;;;;9.73;3.77;;;;;;;-1.33;100.00;97107.88;10410832;28;20561;-77
2021/12/20 05:34:48;;;;;;;7.03;3.70;;;;;;;-1.39;100.00;97110.72;10413741;28;20203;-76
2021/12/20 05:39:48;;;;;;;6.07;3.10;;;;;;;-1.42;100.00;97126.28;10419125;28;20603;-76
2021/12/20 05:44:51;;;;;;;5.87;2.67;;;;;;;-1.50;100.00;97133.50;10418777;28;20197;-76
2021/12/20 05:49:52;;;;;;;14.67;3.47;;;;;;;-1.60;100.00;97127.16;10418697;28;20207;-77
2021/12/20 05:54:52;;;;;;;8.23;2.83;;;;;;;-1.47;100.00;97133.38;10417541;28;20199;-76
2021/12/20 05:59:53;;;;;;;13.83;3.60;;;;;;;-1.59;100.00;97134.78;10418370;28;20223;-76
2021/12/20 06:04:53;;;;;;;12.83;4.33;;;;;;;-1.74;100.00;97131.19;10416860;28;20537;-76
2021/12/20 06:09:53;;;;;;;13.10;3.80;;;;;;;-1.85;100.00;97129.09;10418093;28;20195;-76
2021/12/20 06:14:54;;;;;;;9.07;4.77;;;;;;;-1.98;100.00;97133.97;10417743;28;20200;-76
2021/12/20 06:19:54;;;;;;;16.30;5.10;;;;;;;-1.96;100.00;97139.03;10417983;28;20219;-76
2021/12/20 06:24:54;;;;;;;8.53;4.60;;;;;;;-1.85;100.00;97135.97;10417030;28;20720;-76
2021/12/20 06:29:55;;;;;;;12.13;4.43;;;;;;;-1.93;100.00;97154.31;10416975;28;20204;-76
2021/12/20 06:34:55;;;;;;;9.83;4.70;;;;;;;-1.99;100.00;97165.66;10417056;28;20205;-76
2021/12/20 06:39:56;;;;;;;10.37;4.63;;;;;;;-1.83;100.00;97157.28;10415384;28;20592;-76
2021/12/20 06:44:56;;;;;;;7.67;4.30;;;;;;;-1.87;100.00;97161.72;10417108;28;20196;-76
2021/12/20 06:49:56;;;;;;;8.43;4.20;;;;;;;-1.90;100.00;97161.00;10416477;28;20216;-76
2021/12/20 06:54:57;;;;;;;14.93;4.57;;;;;;;-1.78;100.00;97167.34;10415613;28;20203;-76
2021/12/20 06:59:57;;;;;;;13.30;4.90;;;;;;;-1.68;100.00;97168.59;10416143;28;20312;-76
2021/12/20 07:04:57;;;;;;;10.23;6.73;;;;;;;-1.56;100.00;97175.75;10415603;28;20192;-76
2021/12/20 07:09:58;;;;;;;12.00;5.07;;;;;;;-1.50;100.00;97165.19;10415470;28;20680;-76
2021/12/20 07:14:58;;;;;;;9.80;5.13;;;;;;;-1.43;100.00;97176.00;10415485;28;20688;-76
2021/12/20 07:19:59;;;;;;;7.20;4.47;;;;;;;-1.42;100.00;97180.25;10420906;28;20700;-76
2021/12/20 07:25:00;;;;;;;19.30;5.33;;;;;;;-1.43;100.00;97191.41;10419744;28;20696;-76
2021/12/20 07:30:00;;;;;;;11.43;5.63;;;;;;;-1.32;100.00;97193.50;10419657;28;20712;-76
2021/12/20 07:35:01;;;;;;;14.60;5.90;;;;;;;-1.37;100.00;97193.72;10410494;28;20258;-76
2021/12/20 07:40:02;;;;;;;10.57;4.97;;;;;;;-1.28;100.00;97200.16;10412335;28;20769;-76
2021/12/20 07:45:03;;;;;;;11.53;4.63;;;;;;;-1.31;100.00;97190.03;10413307;28;20188;-76
2021/12/20 07:50:04;;;;;;;11.63;4.57;;;;;;;-1.32;100.00;97189.22;10412694;28;20216;-76
2021/12/20 07:55:05;;;;;;;13.20;4.87;;;;;;;-1.35;100.00;97199.59;10412094;28;20596;-76
2021/12/20 08:00:08;;;;;;;13.30;5.00;;;;;;;-1.35;100.00;97188.50;10411589;28;20281;-76
2021/12/20 08:05:14;;;;;;;11.87;4.90;;;;;;;-1.27;100.00;97201.84;10411776;28;20204;-76
2021/12/20 08:10:17;;;;;;;8.07;4.77;;;;;;;-1.26;100.00;97204.34;10407943;28;20708;-76
2021/12/20 08:15:19;;;;;;;12.97;4.90;;;;;;;-1.21;100.00;97211.00;10412381;28;20272;-76
2021/12/20 08:20:19;;;;;;;14.80;5.20;;;;;;;-1.07;100.00;97208.63;10393476;28;20696;-76
2021/12/20 08:25:20;;;;;;;15.50;4.63;;;;;;;-1.21;100.00;97216.97;10410591;28;20277;-76
2021/12/20 08:30:22;;;;;;;10.20;4.87;;;;;;;-1.19;100.00;97210.03;10412938;28;20196;-76
2021/12/20 08:35:22;;;;;;;13.57;5.30;;;;;;;-1.15;100.00;97221.84;10412367;28;20192;-75
2021/12/20 08:40:23;;;;;;;9.20;5.30;;;;;;;-1.06;100.00;97224.88;10412007;28;20228;-76
2021/12/20 08:45:23;;;;;;;10.57;5.17;;;;;;;-1.03;100.00;97219.59;10413173;28;20203;-74
2021/12/20 08:50:24;;;;;;;10.33;4.60;;;;;;;-1.07;100.00;97221.47;10411914;28;20204;-75
2021/12/20 08:55:25;;;;;;;13.30;4.23;;;;;;;-0.93;100.00;97234.50;10412050;28;20184;-74
2021/12/20 09:00:27;;;;;;;10.47;4.30;;;;;;;-0.93;100.00;97236.25;10414218;28;20216;-74
2021/12/20 09:05:29;;;;;;;12.87;4.17;;;;;;;-0.82;100.00;97238.31;10409959;28;20200;-74
2021/12/20 09:10:31;;;;;;;9.90;3.60;;;;;;;-0.87;100.00;97243.69;10414885;28;20281;-74
2021/12/20 09:15:33;;;;;;;10.83;3.67;;;;;;;-0.92;100.00;97246.47;10416464;28;20195;-75
2021/12/20 09:20:34;;;;;;;14.83;3.77;;;;;;;-0.94;100.00;97239.72;10415455;28;20265;-75
2021/12/20 09:25:37;;;;;;;9.27;3.13;;;;;;;-0.91;100.00;97250.69;10420485;28;20236;-75
2021/12/20 09:30:39;;;;;;;13.07;3.67;;;;;;;-0.80;100.00;97257.91;10422508;28;20185;-75
2021/12/20 09:35:40;;;;;;;10.13;3.37;;;;;;;-0.94;100.00;97255.97;10420533;28;20196;-75
2021/12/20 09:40:42;;;;;;;12.60;3.67;;;;;;;-0.92;100.00;97255.91;10422273;28;20640;-75
2021/12/20 09:45:45;;;;;;;6.53;3.17;;;;;;;-0.90;100.00;97265.22;10418933;28;20200;-74
2021/12/20 09:50:46;;;;;;;8.47;4.00;;;;;;;-1.02;100.00;97272.69;10418178;28;20196;-74
2021/12/20 09:55:48;;;;;;;13.30;3.73;;;;;;;-0.85;100.00;97269.34;10416460;28;20219;-75
2021/12/20 10:00:49;;;;;;;12.63;4.10;;;;;;;-0.74;100.00;97261.94;10418206;28;20227;-74
2021/12/20 10:05:53;;;;;;;13.70;4.57;;;;;;;-0.80;100.00;97264.78;10424632;28;20816;-75
2021/12/20 10:10:54;;;;;;;8.77;3.97;;;;;;;-0.85;100.00;97269.34;10424346;28;20190;-77
2021/12/20 10:15:56;;;;;;;13.07;3.60;;;;;;;-0.79;100.00;97262.16;10417307;28;20702;-76
2021/12/20 10:20:58;;;;;;;12.47;3.07;;;;;;;-0.73;100.00;97259.28;10418286;28;20587;-76
2021/12/20 10:26:18;;;;;;;7.93;3.60;;;;;;;-0.57;100.00;97264.56;10415819;28;20606;-76
2021/12/20 10:31:21;;;;;;;18.03;3.53;;;;;;;-0.75;100.00;97249.97;10412449;28;20594;-76
2021/12/20 10:36:22;;;;;;;8.80;3.50;;;;;;;-0.64;100.00;97254.63;10415394;28;20216;-78
2021/12/20 10:41:34;;;;;;;16.20;4.07;;;;;;;-0.90;100.00;97251.53;10413135;28;20228;-77
2021/12/20 10:46:36;;;;;;;9.40;3.83;;;;;;;-0.75;100.00;97261.09;10412798;28;20599;-76
2021/12/20 10:51:39;;;;;;;10.43;4.57;;;;;;;-0.58;100.00;97259.47;10413613;28;20565;-77
2021/12/20 10:56:48;;;;;;;13.43;5.03;;;;;;;-0.58;100.00;97255.16;10413913;28;20312;-76
2021/12/20 11:02:01;;;;;;;10.57;4.10;;;;;;;-0.58;100.00;97256.91;10413529;28;20551;-76
2021/12/20 11:12:21;;;;;;;15.83;3.90;;;;;;;-0.63;100.00;97258.84;10412268;28;20177;-77
2021/12/20 11:17:22;;;;;;;9.83;3.83;;;;;;;-0.76;100.00;97258.59;10392972;28;20216;-77
2021/12/20 11:22:30;;;;;;;9.67;3.93;;;;;;;-0.55;100.00;97257.56;10412142;28;20215;-78
2021/12/20 11:27:33;;;;;;;11.23;4.63;;;;;;;-0.42;100.00;97262.13;10411719;28;20701;-76
2021/12/20 11:32:34;;;;;;;13.70;4.40;;;;;;;-0.41;100.00;97253.50;10411755;28;20235;-77
2021/12/20 11:37:34;;;;;;;15.53;4.63;;;;;;;-0.46;100.00;97256.31;10412464;28;20225;-77
2021/12/20 11:42:34;;;;;;;9.97;3.80;;;;;;;-0.50;100.00;97254.78;10412799;28;20224;-77
2021/12/20 11:47:49;;;;;;;7.63;3.07;;;;;;;-0.42;100.00;97254.41;10391130;28;20193;-77
2021/12/20 11:52:52;;;;;;;14.50;3.77;;;;;;;-0.11;100.00;97256.28;10370084;28;20247;-77
2021/12/20 11:57:54;;;;;;;12.70;3.47;;;;;;;-0.34;100.00;97248.88;10370615;28;20221;-77
2021/12/20 12:03:04;;;;;;;14.80;3.50;;;;;;;-0.28;100.00;97261.44;10387058;28;20200;-77
2021/12/20 12:08:24;;;;;;;11.37;3.90;;;;;;;-0.25;100.00;97243.28;10437601;28;20208;-76
2021/12/20 12:13:28;;;;;;;8.67;4.13;;;;;;;-0.15;100.00;97252.22;10410871;28;20315;-77
2021/12/20 12:18:46;;;;;;;11.80;4.07;;;;;;;-0.04;100.00;97243.94;10411573;28;20656;-77
2021/12/20 12:23:53;;;;;;;16.30;4.27;;;;;;;-0.09;100.00;97243.31;10392674;28;20239;-77
2021/12/20 12:28:58;;;;;;;9.50;3.00;;;;;;;0.13;100.00;97245.66;10408494;28;20197;-77
2021/12/20 12:34:09;;;;;;;13.83;3.47;;;;;;;-0.04;100.00;97237.03;10411786;28;20293;-77
2021/12/20 12:39:14;;;;;;;7.67;3.07;;;;;;;0.02;100.00;97240.25;10410140;28;20263;-78
2021/12/20 12:44:22;;;;;;;6.37;2.83;;;;;;;0.10;100.00;97241.50;10408680;28;20204;-77
2021/12/20 12:49:22;;;;;;;7.17;2.80;;;;;;;-0.09;100.00;97248.47;10410935;28;20187;-76
2021/12/20 12:54:37;;;;;;;9.67;3.17;;;;;;;-0.22;100.00;97243.13;10407483;28;20209;-77
2021/12/20 12:59:40;;;;;;;11.20;3.27;;;;;;;-0.28;100.00;97254.53;10408508;28;20482;-77
2021/12/20 13:04:45;;;;;;;7.23;3.07;;;;;;;-0.58;100.00;97259.47;10409849;28;20247;-78
2021/12/20 13:09:47;;;;;;;7.40;2.70;;;;;;;-0.52;100.00;97259.19;10408908;28;20180;-77
2021/12/20 13:14:51;;;;;;;9.73;2.93;;;;;;;-0.51;100.00;97258.25;10409644;28;20200;-77
2021/12/20 13:20:35;;;;;;;13.70;3.33;;;;;;;-0.36;100.00;97252.34;10409419;28;20242;-76
2021/12/20 13:25:45;;;;;;;10.63;3.03;;;;;;;-0.39;100.00;97259.41;10407056;28;20360;-78
2021/12/20 13:30:58;;;;;;;7.73;3.13;;;;;;;-0.40;100.00;97265.44;10408964;28;20250;-77
2021/12/20 13:36:57;;;;;;;10.77;2.73;;;;;;;-0.35;100.00;97273.78;10390795;28;20290;-78
2021/12/20 13:42:09;;;;;;;3.77;2.50;;;;;;;-0.37;100.00;97270.44;10387090;28;20201;-78
2021/12/20 13:47:16;;;;;;;7.23;2.50;;;;;;;-0.34;100.00;97269.47;10408855;28;20670;-78
2021/12/20 13:52:16;;;;;;;10.10;2.70;;;;;;;-0.44;100.00;97275.06;10406297;28;20222;-77
2021/12/20 13:57:23;;;;;;;11.03;3.10;;;;;;;-0.36;100.00;97285.81;10411459;28;20223;-77
2021/12/20 14:02:29;;;;;;;7.97;2.83;;;;;;;-0.37;100.00;97279.03;10415160;28;20553;-78
2021/12/20 14:07:32;;;;;;;6.73;2.57;;;;;;;-0.49;100.00;97286.47;10413347;28;20204;-77
2021/12/20 14:12:54;;;;;;;5.13;3.10;;;;;;;-0.40;100.00;97283.47;10420877;28;20592;-77
2021/12/20 14:18:02;;;;;;;7.23;2.80;;;;;;;-0.37;100.00;97291.03;10415579;28;20254;-77
2021/12/20 14:23:03;;;;;;;10.93;2.90;;;;;;;-0.55;100.00;97298.75;10415644;28;20192;-76
2021/12/20 14:28:10;;;;;;;5.50;2.43;;;;;;;-0.51;100.00;97288.31;10414351;28;20231;-77
2021/12/20 14:33:25;;;;;;;8.30;2.83;;;;;;;-0.49;100.00;97286.47;10374765;28;20282;-77
2021/12/20 14:38:32;;;;;;;11.60;2.90;;;;;;;-0.50;100.00;97288.22;10372685;28;20265;-76
2021/12/20 14:43:33;;;;;;;8.53;3.00;;;;;;;-0.61;100.00;97293.06;10372666;28;20201;-77
2021/12/20 14:48:40;;;;;;;5.53;2.40;;;;;;;-0.65;100.00;97296.69;10373779;28;20646;-76
2021/12/20 14:53:40;;;;;;;8.00;2.50;;;;;;;-0.64;100.00;97298.38;10393642;28;20215;-77
2021/12/20 14:58:41;;;;;;;7.67;2.40;;;;;;;-0.76;100.00;97305.72;10410658;28;20693;-76
2021/12/20 15:03:42;;;;;;;4.83;2.53;;;;;;;-0.73;100.00;97304.78;10410160;28;20196;-76
2021/12/20 15:08:42;;;;;;;8.10;2.63;;;;;;;-0.74;100.00;97303.09;10411231;28;20271;-77
2021/12/20 15:13:43;;;;;;;9.30;3.60;;;;;;;-0.90;100.00;97296.09;10411899;28;20192;-81
2021/12/20 15:18:43;;;;;;;19.83;6.80;;;;;;;-0.93;100.00;97303.94;10412218;28;20221;-81
2021/12/20 15:23:43;;;;;;;11.00;6.37;;;;;;;-1.03;100.00;97307.84;10412417;28;20227;-81
2021/12/20 15:28:44;;;;;;;11.40;3.63;;;;;;;-1.14;100.00;97313.47;10411642;28;20184;-81
2021/12/20 15:33:44;;;;;;;8.77;3.63;;;;;;;-1.36;100.00;97320.47;10410325;28;20645;-81
2021/12/20 15:38:44;;;;;;;17.10;5.60;;;;;;;-1.40;100.00;97329.22;10412334;28;20220;-81
2021/12/20 15:43:45;;;;;;;16.27;5.43;;;;;;;-1.45;100.00;97325.13;10411959;28;20688;-81
2021/12/20 15:48:46;;;;;;;11.63;5.20;;;;;;;-1.37;100.00;97329.09;10411596;28;20208;-81
2021/12/20 15:53:50;;;;;;;14.90;4.00;;;;;;;-1.24;100.00;97327.66;10411108;28;20220;-78
2021/12/20 15:58:55;;;;;;;9.60;3.53;;;;;;;-1.16;100.00;97328.13;10411594;28;20221;-78
2021/12/20 16:03:55;;;;;;;10.07;3.50;;;;;;;-1.12;100.00;97337.38;10410450;28;20209;-77
2021/12/20 16:08:56;;;;;;;7.67;3.10;;;;;;;-0.87;100.00;97338.00;10411047;28;20645;-77
2021/12/20 16:13:56;;;;;;;18.80;8.07;;;;;;;-0.94;100.00;97337.44;10408483;28;20208;-78
2021/12/20 16:18:56;;;;;;;5.73;4.00;;;;;;;-0.83;100.00;97336.97;10409798;28;20225;-77
2021/12/20 16:23:57;;;;;;;10.47;2.93;;;;;;;-0.83;100.00;97342.09;10410251;28;20647;-78
2021/12/20 16:28:57;;;;;;;5.37;3.07;;;;;;;-0.75;100.00;97345.16;10409022;28;20681;-77
2021/12/20 16:33:58;;;;;;;11.53;3.80;;;;;;;-0.75;100.00;97348.56;10407195;28;20212;-77
2021/12/20 16:38:58;;;;;;;8.20;3.23;;;;;;;-0.74;100.00;97350.22;10406516;28;20216;-78
2021/12/20 16:44:01;;;;;;;5.83;3.40;;;;;;;-0.73;100.00;97341.59;10405621;28;20188;-77
2021/12/20 16:49:04;;;;;;;8.37;3.60;;;;;;;-0.79;100.00;97343.63;10403381;28;20192;-77
2021/12/20 16:54:11;;;;;;;11.20;3.87;;;;;;;-0.87;100.00;97349.13;10406987;28;20632;-76
2021/12/20 16:59:12;;;;;;;10.00;4.27;;;;;;;-0.86;100.00;97350.78;10406322;28;20335;-77
2021/12/20 17:09:31;;;;;;;8.00;4.00;;;;;;;-0.96;100.00;97354.69;10408645;28;20188;-77
2021/12/20 17:14:31;;;;;;;14.93;5.30;;;;;;;-0.98;100.00;97366.78;10408525;28;20668;-78
2021/12/20 17:19:32;;;;;;;12.97;6.10;;;;;;;-0.91;100.00;97357.88;10406525;28;20217;-78
2021/12/20 17:24:32;;;;;;;13.37;5.53;;;;;;;-0.83;100.00;97355.78;10409264;28;20232;-78
2021/12/20 17:29:33;;;;;;;15.07;5.97;;;;;;;-0.88;100.00;97362.88;10411685;28;20213;-78
2021/12/20 17:34:33;;;;;;;15.27;6.20;;;;;;;-0.93;100.00;97370.00;10418798;28;20185;-78
2021/12/20 17:39:34;;;;;;;12.27;5.17;;;;;;;-0.78;100.00;97374.44;10419011;28;20227;-78
2021/12/20 17:44:34;;;;;;;16.30;5.40;;;;;;;-0.79;100.00;97377.91;10417848;28;20199;-77
2021/12/20 17:49:35;;;;;;;14.90;5.83;;;;;;;-0.88;100.00;97373.19;10416600;28;20224;-78
2021/12/20 17:54:36;;;;;;;15.83;5.70;;;;;;;-0.77;100.00;97377.84;10417617;28;20199;-78
2021/12/20 17:59:37;;;;;;;12.40;7.13;;;;;;;-0.96;100.00;97385.56;10415978;28;20327;-78
2021/12/20 18:04:37;;;;;;;16.93;6.87;;;;;;;-0.95;100.00;97388.06;10417102;28;20184;-78
2021/12/20 18:09:37;;;;;;;15.83;6.33;;;;;;;-1.08;100.00;97392.06;10416268;28;20197;-78
2021/12/20 18:14:38;;;;;;;20.83;10.23;;;;;;;-1.09;100.00;97400.69;10414808;28;20598;-78
2021/12/20 18:19:38;;;;;;;14.10;6.53;;;;;;;-1.07;100.00;97401.47;10415933;28;20220;-78
2021/12/20 18:24:39;;;;;;;14.53;8.47;;;;;;;-1.19;100.00;97404.56;10415611;28;20228;-78
2021/12/20 18:29:40;;;;;;;20.23;9.70;;;;;;;-1.17;100.00;97413.03;10416197;28;20202;-78
2021/12/20 18:34:40;;;;;;;9.50;6.73;;;;;;;-1.20;100.00;97408.84;10415869;28;20192;-78
2021/12/20 18:39:41;;;;;;;19.57;6.20;;;;;;;-1.19;100.00;97418.25;10414734;28;20232;-78
2021/12/20 18:44:41;;;;;;;11.70;5.50;;;;;;;-1.17;100.00;97413.88;10412620;28;20596;-78
2021/12/20 18:49:42;;;;;;;17.57;6.07;;;;;;;-1.26;100.00;97412.56;10414894;28;20211;-78
2021/12/20 18:54:42;;;;;;;7.90;5.10;;;;;;;-1.21;100.00;97407.22;10415221;28;20207;-76
2021/12/20 18:59:42;;;;;;;14.03;5.57;;;;;;;-1.18;100.00;97412.22;10414718;28;20218;-77
2021/12/20 19:04:43;;;;;;;11.47;5.43;;;;;;;-1.17;100.00;97418.19;10415303;28;20264;-77
2021/12/20 19:09:57;;;;;;;9.47;5.00;;;;;;;-1.20;100.00;97414.00;10415043;28;20219;-77
2021/12/20 19:14:58;;;;;;;10.70;5.10;;;;;;;-1.26;100.00;97427.13;10413460;28;20200;-77
2021/12/20 19:19:58;;;;;;;8.70;5.13;;;;;;;-1.10;100.00;97429.88;10414025;28;20597;-77
2021/12/20 19:24:58;;;;;;;12.33;5.90;;;;;;;-1.17;100.00;97424.16;10412885;28;20236;-77
2021/12/20 19:29:59;;;;;;;14.43;4.80;;;;;;;-1.20;100.00;97424.28;10413318;28;20186;-77
2021/12/20 19:34:59;;;;;;;9.30;4.60;;;;;;;-1.21;100.00;97419.22;10412992;28;20193;-77
2021/12/20 19:40:00;;;;;;;9.40;4.17;;;;;;;-1.22;100.00;97425.28;10411867;28;20235;-77
2021/12/20 19:45:02;;;;;;;9.40;3.77;;;;;;;-1.34;100.00;97422.31;10412471;28;20621;-77
2021/12/20 19:50:02;;;;;;;9.83;3.87;;;;;;;-1.32;100.00;97419.66;10412469;28;20715;-77
2021/12/20 19:55:04;;;;;;;6.10;3.70;;;;;;;-1.33;100.00;97416.28;10411807;28;20204;-77
2021/12/20 20:00:06;;;;;;;8.83;3.53;;;;;;;-1.37;100.00;97421.59;10411957;28;20298;-77
2021/12/20 20:05:07;;;;;;;7.40;3.23;;;;;;;-1.38;100.00;97418.19;10411895;28;20561;-77
2021/12/20 20:10:08;;;;;;;8.20;4.73;;;;;;;-1.29;100.00;97417.81;10410276;28;20192;-77
2021/12/20 20:15:09;;;;;;;5.50;3.10;;;;;;;-1.12;100.00;97416.22;10411440;28;20193;-77
2021/12/20 20:20:09;;;;;;;3.00;2.30;;;;;;;-1.08;100.00;97428.06;10411456;28;20228;-76
2021/12/20 20:25:10;;;;;;;7.90;2.90;;;;;;;-1.18;100.00;97437.94;10410784;28;20229;-76
2021/12/20 20:30:11;;;;;;;2.90;2.07;;;;;;;-1.14;100.00;97436.03;10411480;28;20191;-77
2021/12/20 20:35:11;;;;;;;5.40;2.47;;;;;;;-1.11;100.00;97423.88;10409832;28;20184;-76
2021/12/20 20:40:12;;;;;;;4.47;2.20;;;;;;;-1.11;100.00;97434.16;10410437;28;20223;-77
2021/12/20 20:45:12;;;;;;;3.80;2.23;;;;;;;-1.14;100.00;97429.16;10410828;28;20246;-76
2021/12/20 20:50:13;;;;;;;2.93;2.27;;;;;;;-1.19;100.00;97430.28;10410738;28;20208;-77
2021/12/20 20:55:13;;;;;;;4.50;2.60;;;;;;;-1.38;100.00;97427.63;10409618;28;20192;-76
2021/12/20 21:05:33;;;;;;;4.60;2.50;;;;;;;-1.31;100.00;97437.59;10405953;28;20181;-76
2021/12/20 21:10:34;;;;;;;4.90;2.40;;;;;;;-1.32;100.00;97440.22;10409289;28;20656;-76
2021/12/20 21:15:35;;;;;;;5.97;2.70;;;;;;;-1.35;100.00;97443.75;10409877;28;20208;-76
2021/12/20 21:20:35;;;;;;;5.67;2.60;;;;;;;-1.40;100.00;97437.16;10410079;28;20235;-76
2021/12/20 21:25:35;;;;;;;5.37;2.90;;;;;;;-1.22;100.00;97444.09;10408847;28;20232;-76
2021/12/20 21:30:36;;;;;;;5.57;3.00;;;;;;;-1.38;100.00;97445.63;10410056;28;20310;-76
2021/12/20 21:35:36;;;;;;;7.00;3.50;;;;;;;-1.47;100.00;97439.97;10409473;28;20201;-76
2021/12/20 21:40:37;;;;;;;8.10;3.60;;;;;;;-1.43;100.00;97435.53;10409168;28;20224;-73
2021/12/20 21:45:37;;;;;;;7.87;3.87;;;;;;;-1.38;100.00;97437.91;10409857;28;20188;-76
2021/12/20 21:50:37;;;;;;;8.17;3.53;;;;;;;-1.36;100.00;97439.53;10409741;28;20570;-76
2021/12/20 21:55:38;;;;;;;7.17;4.50;;;;;;;-1.37;100.00;97434.47;10410223;28;20189;-77
2021/12/20 22:00:38;;;;;;;9.53;3.80;;;;;;;-1.21;100.00;97432.91;10410613;28;20228;-76
2021/12/20 22:05:38;;;;;;;5.53;3.53;;;;;;;-1.04;100.00;97418.47;10409863;28;20188;-76
2021/12/20 22:10:39;;;;;;;8.93;4.10;;;;;;;-1.23;100.00;97426.16;10410656;28;20192;-76
2021/12/20 22:15:39;;;;;;;8.20;4.17;;;;;;;-1.42;100.00;97431.22;10410304;28;20223;-76
2021/12/20 22:20:39;;;;;;;7.37;4.10;;;;;;;-1.12;100.00;97434.22;10417477;28;20216;-76
2021/12/20 22:25:40;;;;;;;8.97;4.33;;;;;;;-1.14;100.00;97430.91;10416866;28;20262;-76
2021/12/20 22:30:41;;;;;;;7.30;3.73;;;;;;;-1.28;100.00;97432.31;10417676;28;20206;-77
2021/12/20 22:35:41;;;;;;;5.60;3.33;;;;;;;-1.23;100.00;97432.13;10416666;28;20211;-77
2021/12/20 22:40:42;;;;;;;8.90;4.13;;;;;;;-1.34;100.00;97432.59;10416826;28;20216;-77
2021/12/20 22:45:42;;;;;;;8.73;4.40;;;;;;;-1.28;100.00;97436.63;10416896;28;20192;-77
2021/12/20 22:50:43;;;;;;;6.63;3.87;;;;;;;-1.32;100.00;97429.94;10416200;28;20657;-76
2021/12/20 22:55:43;;;;;;;6.33;3.67;;;;;;;-1.15;100.00;97430.06;10416330;28;20196;-76
2021/12/20 23:00:43;;;;;;;5.37;3.30;;;;;;;-1.21;100.00;97426.91;10416030;28;20367;-76
2021/12/20 23:05:44;;;;;;;7.72;3.05;;;;;;;-1.10;100.00;97433.28;10415221;28;20197;-76
2021/12/20 23:10:45;;;;;;;6.13;2.30;;;;;;;-1.12;100.00;97432.53;10415606;28;20189;-76
2021/12/20 23:15:47;;;;;;;6.27;2.10;;;;;;;-1.04;100.00;97423.63;10415056;28;20563;-76
2021/12/20 23:20:48;;;;;;;2.63;1.33;;;;;;;-1.14;100.00;97426.59;10414823;28;20212;-76
2021/12/20 23:25:50;;;;;;;1.40;1.30;;;;;;;-1.30;100.00;97417.88;10413294;28;20236;-76
2021/12/20 23:30:51;;;;;;;3.70;1.60;;;;;;;-1.21;100.00;97416.63;10413764;28;20185;-76